aviador You're here:

MMMZ Decoded Metar

MAZATLAN in MEXICO
Report Time2017-08-19 19:41:00
UTC Time2017-08-19 20:18:53
Flight Rules vfr VFR
Wind230° at 09 kt
W.Decomp.*RWY 26: 7.0 kt HW 5.7 kt LCW
W.Rank230° ranks 6
Current wind is above 230° avg. (7.9)
Visibility9999 m
Phenomena:N/A
Clouds:Few TCU 020 Hf
Broken 090 Hf
Expected CloudBase > 2,400 ft AGL from Temp-Dew spread
Ceiling9,000 ft
Temp32°C (ISA +17)
Dew Point26°C (71% RH)
Heat Index40.8°C
QNH1012 hPa
Density Alt2,454 ft
Elevation33 ft
Report Wrong Elevation
Raw Report
METAR MMMZ 191941Z 23009KT 14SM FEW020TCU BKN090 32/26 A2988 RMK 8/270=

Extra information for MMMZ:More info

Metar Taf Metar & Taf Last 4 Metars F.Rules Stats Wind Profile Meteogram Temp Stats Airport Information Weather charts Add Link Nearby VenuesMetar ALERT Operation Metar Decoded Social comments